Time;durP1;ratioP1;P1;durP2;ratioP2;P2;SDS_P1;SDS_P2;PMS_P1;PMS_P2;Temp;Humidity;BMP_temperature;BMP_pressure;BME280_temperature;BME280_humidity;BME280_pressure;Samples;Min_cycle;Max_cycle;Signal;HPM_P1;HPM_P2
2021/08/05 00:00:51;;;;;;;;;5.75;4.00;;;;;19.25;60.06;100874.81;4832909;29;45496;-88
2021/08/05 00:03:17;;;;;;;;;4.25;4.25;;;;;19.26;59.87;100884.44;4841625;29;45236;-88
2021/08/05 00:05:42;;;;;;;;;8.00;6.75;;;;;19.28;60.30;100882.50;4843246;29;45405;-88
2021/08/05 00:08:08;;;;;;;;;7.00;5.75;;;;;19.26;60.05;100880.94;4844170;29;45392;-88
2021/08/05 00:10:33;;;;;;;;;5.00;5.00;;;;;19.29;60.14;100884.19;4846353;29;45605;-88
2021/08/05 00:12:59;;;;;;;;;7.75;5.75;;;;;19.29;60.29;100875.44;4844058;29;45505;-88
2021/08/05 00:15:24;;;;;;;;;7.75;4.50;;;;;19.29;60.55;100876.28;4845547;29;45299;-88
2021/08/05 00:17:50;;;;;;;;;6.00;6.00;;;;;19.31;60.60;100869.09;4846463;29;45323;-88
2021/08/05 00:20:15;;;;;;;;;6.67;6.00;;;;;19.33;60.71;100861.06;4846098;29;45518;-88
2021/08/05 00:22:41;;;;;;;;;6.00;6.00;;;;;19.34;60.55;100854.84;4841793;29;45456;-88
2021/08/05 00:25:07;;;;;;;;;8.33;6.00;;;;;19.36;60.50;100851.13;4827963;29;44805;-88
2021/08/05 00:27:32;;;;;;;;;8.50;8.00;;;;;19.36;60.36;100850.31;4843365;29;46096;-88
2021/08/05 00:29:58;;;;;;;;;7.00;7.00;;;;;19.36;60.36;100843.22;4827536;29;45359;-88
2021/08/05 00:32:23;;;;;;;;;10.50;7.75;;;;;19.40;60.24;100849.16;4827531;29;45477;-88
2021/08/05 00:34:49;;;;;;;;;8.00;8.00;;;;;19.37;60.51;100844.06;4828541;29;45513;-88
2021/08/05 00:37:14;;;;;;;;;9.50;9.50;;;;;19.40;60.41;100845.66;4827853;29;45548;-88
2021/08/05 00:39:40;;;;;;;;;9.67;9.00;;;;;19.37;60.26;100844.06;4841558;29;47392;-88
2021/08/05 00:42:05;;;;;;;;;8.33;8.33;;;;;19.36;60.29;100835.31;4827583;29;45444;-88
2021/08/05 00:44:31;;;;;;;;;8.67;8.67;;;;;19.38;60.26;100843.13;4829433;29;45464;-88
2021/08/05 00:46:56;;;;;;;;;12.00;10.00;;;;;19.35;60.32;100838.06;4827017;29;45584;-88
2021/08/05 00:49:22;;;;;;;;;11.67;10.67;;;;;19.36;60.40;100837.13;4841130;29;46567;-88
2021/08/05 00:51:48;;;;;;;;;11.00;10.33;;;;;19.36;60.68;100847.69;4845753;29;45214;-88
2021/08/05 00:54:13;;;;;;;;;7.33;7.33;;;;;19.33;60.46;100850.50;4843121;29;45512;-88
2021/08/05 00:56:38;;;;;;;;;7.33;7.33;;;;;19.28;60.48;100850.84;4827834;29;45365;-88
2021/08/05 00:59:04;;;;;;;;;8.33;7.00;;;;;19.28;61.08;100839.44;4827235;29;46229;-88
2021/08/05 01:01:36;;;;;;;;;9.67;9.33;;;;;19.30;60.51;100842.84;4827177;29;45343;-88
2021/08/05 01:04:02;;;;;;;;;10.00;8.67;;;;;19.27;60.97;100841.25;4827048;29;45481;-88
2021/08/05 01:06:47;;;;;;;;;8.00;8.00;;;;;19.28;61.28;100847.34;4829560;29;45854;-88
2021/08/05 01:09:37;;;;;;;;;6.33;6.33;;;;;19.30;60.98;100848.13;4826903;29;45681;-87
2021/08/05 01:12:41;;;;;;;;;8.00;6.00;;;;;19.28;61.17;100835.03;4825549;29;45358;-88
2021/08/05 01:15:25;;;;;;;;;7.00;5.67;;;;;19.30;61.25;100835.75;4825623;29;45421;-88
2021/08/05 01:17:56;;;;;;;;;6.67;6.67;;;;;19.27;61.41;100824.56;4844574;29;45545;-88
2021/08/05 01:20:23;;;;;;;;;10.00;6.50;;;;;19.28;61.45;100829.75;4842583;29;46373;-88
2021/08/05 01:23:12;;;;;;;;;6.75;6.75;;;;;19.27;61.29;100835.13;4859573;29;45414;-88
2021/08/05 01:25:47;;;;;;;;;8.67;6.00;;;;;19.24;61.29;100817.72;4845543;29;45837;-88
2021/08/05 01:28:13;;;;;;;;;9.33;7.67;;;;;19.26;61.29;100821.13;4830542;29;45387;-88
2021/08/05 01:30:43;;;;;;;;;5.33;5.33;;;;;19.22;61.43;100820.47;4826756;29;45611;-88
2021/08/05 01:33:10;;;;;;;;;8.00;6.67;;;;;19.20;61.48;100819.75;4825469;29;46001;-88
2021/08/05 01:35:36;;;;;;;;;7.33;6.00;;;;;19.23;61.63;100819.53;4825549;29;45437;-88
2021/08/05 01:38:02;;;;;;;;;9.00;6.67;;;;;19.22;61.44;100824.91;4847790;29;45532;-88
2021/08/05 01:40:31;;;;;;;;;7.00;6.67;;;;;19.21;61.86;100821.41;4844975;29;45438;-88
2021/08/05 01:42:58;;;;;;;;;9.00;7.00;;;;;19.23;61.68;100826.59;4845156;29;45566;-88
2021/08/05 01:45:25;;;;;;;;;10.67;8.33;;;;;19.21;62.13;100823.22;4844318;29;45240;-88
2021/08/05 01:47:51;;;;;;;;;9.33;8.00;;;;;19.22;61.84;100825.75;4843521;29;45800;-88
2021/08/05 01:50:18;;;;;;;;;8.67;6.33;;;;;19.20;61.57;100824.16;4826361;29;45635;-88
2021/08/05 01:52:45;;;;;;;;;7.33;7.33;;;;;19.20;61.71;100811.84;4826494;29;45500;-88
2021/08/05 01:55:12;;;;;;;;;7.25;7.25;;;;;19.25;61.30;100819.41;4825391;29;45369;-88
2021/08/05 01:57:38;;;;;;;;;9.50;7.75;;;;;19.26;61.82;100812.34;4825243;29;45383;-88
2021/08/05 02:00:08;;;;;;;;;7.00;7.00;;;;;19.26;61.70;100802.66;4837550;29;45989;-88
2021/08/05 02:02:34;;;;;;;;;9.00;8.00;;;;;19.24;61.72;100786.06;4844654;29;45480;-89
2021/08/05 02:05:15;;;;;;;;;7.00;7.00;;;;;19.28;61.84;100792.81;4844936;29;45424;-88
2021/08/05 02:08:05;;;;;;;;;7.00;7.00;;;;;19.30;61.90;100800.63;4845000;29;45519;-87
2021/08/05 02:10:34;;;;;;;;;9.00;9.00;;;;;19.28;61.61;100803.38;4837859;29;47399;-88
2021/08/05 02:13:23;;;;;;;;;7.67;6.00;;;;;19.28;61.84;100787.53;4828328;29;45306;-88
2021/08/05 02:15:51;;;;;;;;;8.67;8.67;;;;;19.26;62.14;100778.91;4843263;29;45567;-88
2021/08/05 02:18:17;;;;;;;;;6.75;6.75;;;;;19.27;61.97;100780.59;4843263;29;45437;-88
2021/08/05 02:20:45;;;;;;;;;7.67;7.00;;;;;19.28;62.28;100781.41;4840737;29;47084;-89
2021/08/05 02:23:13;;;;;;;;;7.33;6.67;;;;;19.25;61.88;100771.91;4858526;29;45691;-89
2021/08/05 02:25:39;;;;;;;;;11.00;11.00;;;;;19.25;61.99;100776.38;4830745;29;45382;-88
2021/08/05 02:28:06;;;;;;;;;8.67;6.67;;;;;19.26;61.86;100784.19;4824931;29;44763;-88
2021/08/05 02:30:32;;;;;;;;;8.00;8.00;;;;;19.22;62.09;100785.34;4839887;29;47420;-88
2021/08/05 02:32:58;;;;;;;;;9.67;8.00;;;;;19.23;61.82;100789.66;4825636;29;45449;-88
2021/08/05 02:35:26;;;;;;;;;7.67;6.67;;;;;19.21;61.96;100786.31;4843527;29;45441;-88
2021/08/05 02:37:51;;;;;;;;;11.00;10.00;;;;;19.19;61.75;100783.78;4858916;29;45523;-88
2021/08/05 02:40:17;;;;;;;;;8.75;7.75;;;;;19.22;61.93;100777.44;4842668;29;47224;-89
2021/08/05 02:42:45;;;;;;;;;8.00;8.00;;;;;19.21;62.01;100787.13;4832042;29;45410;-88
2021/08/05 02:45:11;;;;;;;;;9.00;8.00;;;;;19.20;62.19;100787.22;4826031;29;45304;-88
2021/08/05 02:47:36;;;;;;;;;10.50;8.00;;;;;19.19;62.31;100777.66;4839824;29;45877;-89
2021/08/05 02:50:04;;;;;;;;;12.00;10.50;;;;;19.17;62.00;100779.56;4825508;29;46109;-88
2021/08/05 02:52:31;;;;;;;;;11.00;11.00;;;;;19.19;61.64;100772.38;4841121;29;45448;-88
2021/08/05 02:54:57;;;;;;;;;14.50;11.00;;;;;19.17;61.78;100779.56;4825623;29;44710;-88
2021/08/05 02:57:23;;;;;;;;;11.50;9.75;;;;;19.16;62.00;100767.34;4825889;29;45447;-88
2021/08/05 02:59:50;;;;;;;;;14.00;11.75;;;;;19.17;61.77;100777.75;4825333;29;45382;-89
2021/08/05 03:02:16;;;;;;;;;13.33;10.33;;;;;19.16;61.57;100757.59;4825182;29;45306;-88
2021/08/05 03:04:41;;;;;;;;;10.00;9.00;;;;;19.13;61.99;100756.97;4842090;29;45515;-88
2021/08/05 03:07:09;;;;;;;;;11.00;10.00;;;;;19.16;61.88;100768.16;4844334;29;45396;-88
2021/08/05 03:09:35;;;;;;;;;14.00;11.00;;;;;19.14;61.61;100758.66;4842601;29;47084;-88
2021/08/05 03:12:00;;;;;;;;;15.33;12.00;;;;;19.13;61.91;100754.34;4841560;29;45570;-88
2021/08/05 03:14:26;;;;;;;;;8.67;8.67;;;;;19.14;62.14;100748.13;4834609;29;45363;-88
2021/08/05 03:16:51;;;;;;;;;8.67;8.00;;;;;19.13;61.66;100754.34;4825694;29;45443;-88
2021/08/05 03:19:17;;;;;;;;;6.33;6.33;;;;;19.13;61.95;100747.28;4823796;29;48234;-88
2021/08/05 03:21:42;;;;;;;;;5.33;5.00;;;;;19.12;61.85;100747.41;4839570;29;45472;-88
2021/08/05 03:24:07;;;;;;;;;4.67;4.67;;;;;19.12;61.78;100750.03;4826674;29;45438;-88
2021/08/05 03:26:33;;;;;;;;;5.00;5.00;;;;;19.09;61.97;100745.81;4825423;29;45367;-89
2021/08/05 03:28:58;;;;;;;;;7.00;6.00;;;;;19.09;61.73;100743.19;4839339;29;47250;-88
2021/08/05 03:31:23;;;;;;;;;6.00;4.00;;;;;19.07;62.13;100739.81;4825154;29;45382;-89
2021/08/05 03:33:49;;;;;;;;;4.33;4.00;;;;;19.08;62.15;100734.41;4825214;29;45460;-88
2021/08/05 03:36:14;;;;;;;;;5.67;5.00;;;;;19.09;61.99;100737.91;4826508;29;45478;-88
2021/08/05 03:38:40;;;;;;;;;6.00;6.00;;;;;19.07;61.97;100743.28;4825034;29;45515;-88
2021/08/05 03:41:05;;;;;;;;;5.00;5.00;;;;;19.06;61.56;100740.75;4825190;29;45412;-87
2021/08/05 03:43:32;;;;;;;;;5.00;5.00;;;;;19.04;61.93;100734.75;4830450;29;44868;-88
2021/08/05 03:45:57;;;;;;;;;5.67;5.67;;;;;19.06;62.00;100738.97;4845611;29;45527;-88
2021/08/05 03:48:23;;;;;;;;;4.33;4.33;;;;;19.04;61.70;100729.50;4846388;29;46582;-88
2021/08/05 03:50:48;;;;;;;;;7.33;5.00;;;;;19.00;61.89;100718.28;4845512;29;45391;-88
2021/08/05 03:53:14;;;;;;;;;4.00;4.00;;;;;18.99;61.80;100728.94;4847001;29;45359;-88
2021/08/05 03:55:39;;;;;;;;;4.33;4.00;;;;;18.99;61.84;100737.72;4859731;29;45633;-87
2021/08/05 03:58:09;;;;;;;;;4.67;4.67;;;;;18.99;61.90;100735.06;4845092;29;47838;-88
2021/08/05 04:00:35;;;;;;;;;7.00;5.00;;;;;18.96;62.25;100745.81;4846664;29;45351;-88
2021/08/05 04:03:01;;;;;;;;;6.00;5.00;;;;;18.91;61.95;100729.50;4846608;29;45268;-88
2021/08/05 04:05:26;;;;;;;;;4.67;4.67;;;;;18.88;62.07;100732.34;4846868;29;45333;-88
2021/08/05 04:07:52;;;;;;;;;7.00;6.00;;;;;18.89;62.06;100739.31;4835193;29;45984;-88
2021/08/05 04:10:17;;;;;;;;;5.00;5.00;;;;;18.87;61.97;100739.41;4828157;29;45468;-88
2021/08/05 04:12:43;;;;;;;;;4.67;4.67;;;;;18.85;62.36;100733.41;4842295;29;45908;-88
2021/08/05 04:15:09;;;;;;;;;5.33;5.33;;;;;18.82;62.41;100739.75;4828194;29;45210;-88
2021/08/05 04:17:34;;;;;;;;;5.00;5.00;;;;;18.82;62.49;100736.25;4829186;29;45500;-88
2021/08/05 04:20:00;;;;;;;;;4.67;4.67;;;;;18.81;62.43;100731.94;4841859;29;45488;-88
2021/08/05 04:22:26;;;;;;;;;4.00;4.00;;;;;18.76;62.65;100728.78;4845512;29;45552;-88
2021/08/05 04:24:51;;;;;;;;;6.00;6.00;;;;;18.75;62.71;100733.22;4845332;29;45422;-88
2021/08/05 04:27:17;;;;;;;;;8.67;7.00;;;;;18.75;62.62;100735.03;4846088;29;45335;-88
2021/08/05 04:29:43;;;;;;;;;6.00;6.00;;;;;18.76;62.50;100737.56;4832717;29;45282;-88
2021/08/05 04:32:09;;;;;;;;;11.50;7.75;;;;;18.75;62.94;100733.22;4827700;29;45392;-88
2021/08/05 04:34:34;;;;;;;;;9.00;9.00;;;;;18.74;62.71;100728.06;4827639;29;45424;-88
2021/08/05 04:37:00;;;;;;;;;8.33;8.00;;;;;18.76;63.07;100731.44;4827546;29;46621;-88
2021/08/05 04:39:25;;;;;;;;;7.67;7.67;;;;;18.74;62.93;100728.06;4828602;29;45419;-88
2021/08/05 04:41:50;;;;;;;;;9.00;9.00;;;;;18.74;62.95;100718.34;4842911;29;45284;-88
2021/08/05 04:44:16;;;;;;;;;7.00;7.00;;;;;18.74;62.81;100722.78;4846313;29;44771;-88
2021/08/05 04:46:41;;;;;;;;;9.25;9.00;;;;;18.76;63.14;100729.66;4843557;29;47835;-88
2021/08/05 04:49:07;;;;;;;;;10.33;8.33;;;;;18.74;63.20;100728.91;4845029;29;45286;-87
2021/08/05 04:51:32;;;;;;;;;9.00;8.75;;;;;18.76;63.06;100727.00;4844233;29;45236;-88
2021/08/05 04:54:02;;;;;;;;;11.67;10.00;;;;;18.79;62.96;100731.22;4844591;29;45305;-88
2021/08/05 04:56:30;;;;;;;;;11.00;9.50;;;;;18.77;63.38;100726.06;4827883;29;45525;-88
2021/08/05 04:58:59;;;;;;;;;15.75;11.00;;;;;18.78;63.43;100718.97;4827072;29;44795;-88
2021/08/05 05:01:25;;;;;;;;;12.25;9.75;;;;;18.81;63.34;100724.88;4836446;29;46005;-88
2021/08/05 05:03:53;;;;;;;;;10.50;10.00;;;;;18.83;63.17;100728.25;4845525;29;45386;-87
2021/08/05 05:06:19;;;;;;;;;13.50;10.50;;;;;18.81;63.46;100735.44;4845619;29;45424;-89
2021/08/05 05:08:44;;;;;;;;;15.50;10.25;;;;;18.82;63.52;100736.25;4844204;29;45439;-88
2021/08/05 05:11:10;;;;;;;;;9.75;9.75;;;;;18.85;63.49;100743.09;4843628;29;45536;-88
2021/08/05 05:13:35;;;;;;;;;9.67;9.33;;;;;18.83;63.44;100740.56;4856941;29;44742;-88
2021/08/05 05:16:00;;;;;;;;;12.00;9.67;;;;;18.87;63.66;100743.84;4826431;29;45539;-88
2021/08/05 05:18:26;;;;;;;;;10.33;9.67;;;;;18.83;63.45;100736.16;4825878;29;44800;-88
2021/08/05 05:20:52;;;;;;;;;12.00;9.33;;;;;18.87;63.33;100742.06;4827005;29;45519;-88
2021/08/05 05:23:21;;;;;;;;;8.00;8.00;;;;;18.87;63.44;100739.41;4840223;29;45578;-88
2021/08/05 05:25:47;;;;;;;;;8.00;7.00;;;;;18.87;64.02;100738.56;4844108;29;47193;-88
2021/08/05 05:28:13;;;;;;;;;10.33;7.33;;;;;18.88;63.62;100741.09;4845228;29;45751;-88
2021/08/05 05:30:39;;;;;;;;;9.67;8.00;;;;;18.87;63.62;100735.91;4845402;29;45466;-88
2021/08/05 05:33:06;;;;;;;;;9.67;7.00;;;;;18.88;63.94;100743.72;4855768;29;45552;-88
2021/08/05 05:35:31;;;;;;;;;8.33;7.00;;;;;18.91;63.47;100740.88;4826467;29;45701;-88
2021/08/05 05:37:58;;;;;;;;;7.00;6.00;;;;;18.90;63.55;100743.63;4840768;29;45410;-88
2021/08/05 05:40:24;;;;;;;;;8.33;7.67;;;;;18.92;63.52;100749.63;4831695;29;45313;-88
2021/08/05 05:42:50;;;;;;;;;9.00;7.67;;;;;18.91;63.58;100743.53;4844063;29;45269;-88
2021/08/05 05:45:17;;;;;;;;;9.25;7.75;;;;;18.96;63.60;100740.56;4842110;29;46326;-88
2021/08/05 05:47:43;;;;;;;;;7.00;6.33;;;;;18.96;63.85;100735.28;4844861;29;45484;-88
2021/08/05 05:50:11;;;;;;;;;8.33;8.00;;;;;18.99;63.56;100748.25;4845143;29;45396;-88
2021/08/05 05:52:37;;;;;;;;;10.67;8.00;;;;;18.99;63.69;100748.25;4845515;29;45153;-88
2021/08/05 05:55:03;;;;;;;;;9.00;9.00;;;;;18.97;63.30;100742.22;4836463;29;45460;-90
2021/08/05 05:57:29;;;;;;;;;9.25;8.00;;;;;18.95;63.05;100741.50;4831823;29;45381;-90
2021/08/05 05:59:54;;;;;;;;;8.00;8.00;;;;;18.96;62.93;100751.94;4845035;29;45606;-88
2021/08/05 06:02:19;;;;;;;;;9.00;9.00;;;;;18.95;62.91;100749.41;4845218;29;45237;-87
2021/08/05 06:04:45;;;;;;;;;10.00;7.00;;;;;18.96;63.03;100756.38;4842711;29;46230;-88
2021/08/05 06:07:10;;;;;;;;;8.00;7.00;;;;;18.96;62.86;100759.00;4841493;29;45808;-88
2021/08/05 06:09:35;;;;;;;;;7.67;7.33;;;;;18.98;63.14;100761.53;4844006;29;45873;-89
2021/08/05 06:12:01;;;;;;;;;6.25;6.25;;;;;19.00;63.17;100762.25;4853463;29;45339;-88
2021/08/05 06:14:26;;;;;;;;;8.67;7.00;;;;;19.04;63.37;100771.69;4826152;29;45737;-88
2021/08/05 06:16:52;;;;;;;;;12.75;8.00;;;;;19.02;62.61;100771.75;4826045;29;45709;-88
2021/08/05 06:19:17;;;;;;;;;8.00;8.00;;;;;19.00;62.73;100765.75;4825313;29;45370;-88
2021/08/05 06:21:43;;;;;;;;;10.00;8.75;;;;;19.00;62.58;100767.53;4842613;29;45573;-88
2021/08/05 06:24:09;;;;;;;;;10.33;10.33;;;;;18.94;62.12;100774.94;4840379;29;45660;-88
2021/08/05 06:26:34;;;;;;;;;9.00;9.00;;;;;18.90;62.15;100765.56;4843310;29;45437;-87
2021/08/05 06:29:00;;;;;;;;;8.00;8.00;;;;;18.88;62.96;100770.09;4827605;29;45528;-88
2021/08/05 06:31:26;;;;;;;;;10.33;9.00;;;;;18.90;62.66;100770.84;4842978;29;45224;-89
2021/08/05 06:33:51;;;;;;;;;6.00;6.00;;;;;18.92;62.64;100778.63;4842496;29;46292;-87
2021/08/05 06:36:21;;;;;;;;;11.33;10.33;;;;;18.94;62.69;100774.09;4826112;29;45292;-88
2021/08/05 06:38:48;;;;;;;;;10.33;10.33;;;;;18.91;62.42;100769.88;4829777;29;45461;-88
2021/08/05 06:41:13;;;;;;;;;9.67;9.33;;;;;18.91;62.47;100777.81;4844318;29;45642;-88
2021/08/05 06:43:38;;;;;;;;;11.33;10.33;;;;;18.91;62.21;100772.53;4833049;29;47237;-88
2021/08/05 06:46:04;;;;;;;;;7.00;7.00;;;;;18.92;62.44;100770.72;4839863;29;45482;-88
2021/08/05 06:48:29;;;;;;;;;11.67;9.67;;;;;18.95;62.32;100767.88;4837488;29;45552;-89
2021/08/05 06:50:55;;;;;;;;;10.33;9.33;;;;;18.93;62.06;100764.50;4828354;29;45280;-88
2021/08/05 06:53:20;;;;;;;;;9.67;9.67;;;;;18.95;62.04;100771.38;4832010;29;45437;-88
2021/08/05 06:55:47;;;;;;;;;13.00;11.00;;;;;19.02;62.55;100765.66;4827805;29;45237;-88
2021/08/05 06:58:12;;;;;;;;;15.33;12.00;;;;;19.02;62.24;100763.84;4839944;29;45721;-89
2021/08/05 07:00:37;;;;;;;;;11.00;11.00;;;;;19.05;62.15;100763.66;4843356;29;45527;-88
2021/08/05 07:03:03;;;;;;;;;10.00;10.00;;;;;19.09;62.46;100757.22;4845275;29;47200;-89
2021/08/05 07:05:29;;;;;;;;;11.33;10.00;;;;;19.13;62.34;100767.53;4839300;29;45346;-88
2021/08/05 07:07:55;;;;;;;;;10.00;10.00;;;;;19.17;62.36;100758.47;4825954;29;45449;-89
2021/08/05 07:10:22;;;;;;;;;9.33;9.33;;;;;19.24;62.87;100770.25;4838882;29;45824;-88
2021/08/05 07:12:47;;;;;;;;;11.00;11.00;;;;;19.27;62.53;100762.13;4828022;29;48323;-88
2021/08/05 07:15:12;;;;;;;;;13.00;12.00;;;;;19.30;62.40;100766.34;4838604;29;45859;-88
2021/08/05 07:17:43;;;;;;;;;6.00;4.00;;;;;19.32;62.15;100764.41;4831738;29;45385;-88
2021/08/05 07:20:10;;;;;;;;;10.00;10.00;;;;;19.38;62.19;100766.59;4825211;29;45469;-88
2021/08/05 07:22:36;;;;;;;;;12.67;9.00;;;;;19.41;61.90;100760.25;4832283;29;45463;-88
2021/08/05 07:25:01;;;;;;;;;12.33;11.33;;;;;19.43;61.62;100767.09;4835117;29;45335;-88
2021/08/05 07:27:27;;;;;;;;;11.75;11.75;;;;;19.45;61.50;100767.81;4839544;29;44900;-89
2021/08/05 07:29:52;;;;;;;;;12.75;12.75;;;;;19.48;61.39;100758.84;4843395;29;45447;-89
2021/08/05 07:32:18;;;;;;;;;9.00;8.33;;;;;19.50;61.24;100757.78;4833132;29;46947;-89
2021/08/05 07:34:43;;;;;;;;;14.67;10.00;;;;;19.52;61.18;100762.13;4830463;29;45382;-89
2021/08/05 07:37:08;;;;;;;;;12.33;11.67;;;;;19.58;61.33;100767.78;4834214;29;45307;-89
2021/08/05 07:39:34;;;;;;;;;10.00;8.67;;;;;19.61;60.71;100762.28;4847552;29;45466;-89
2021/08/05 07:41:59;;;;;;;;;11.00;10.00;;;;;19.61;60.83;100772.84;4825619;29;45304;-89
2021/08/05 07:44:28;;;;;;;;;10.33;9.67;;;;;19.63;61.20;100776.19;4836733;29;45316;-89
2021/08/05 07:46:53;;;;;;;;;9.67;9.67;;;;;19.68;60.85;100764.47;4825406;29;45512;-89
2021/08/05 07:49:18;;;;;;;;;9.67;9.00;;;;;19.71;60.82;100761.56;4825382;29;45283;-89
2021/08/05 07:51:44;;;;;;;;;12.00;10.00;;;;;19.75;60.50;100763.03;4826617;29;47131;-89
2021/08/05 07:54:09;;;;;;;;;9.67;9.67;;;;;19.79;60.46;100761.84;4838882;29;46157;-89
2021/08/05 07:56:35;;;;;;;;;10.67;9.00;;;;;19.83;60.17;100765.97;4828276;29;45524;-89
2021/08/05 07:59:00;;;;;;;;;12.33;11.33;;;;;19.85;60.81;100764.03;4828323;29;45255;-89
2021/08/05 08:01:26;;;;;;;;;12.00;10.00;;;;;19.93;60.40;100762.59;4827205;29;45729;-89
2021/08/05 08:03:51;;;;;;;;;10.33;9.67;;;;;19.97;60.33;100766.75;4842767;29;45387;-89
2021/08/05 08:06:17;;;;;;;;;10.00;9.67;;;;;20.01;60.31;100761.09;4833631;29;45483;-89
2021/08/05 08:08:42;;;;;;;;;10.33;10.33;;;;;20.10;60.68;100751.66;4834500;29;45821;-90
2021/08/05 08:11:08;;;;;;;;;12.00;11.00;;;;;20.17;59.78;100757.28;4838895;29;48371;-90
2021/08/05 08:13:33;;;;;;;;;12.00;11.00;;;;;20.20;59.80;100758.84;4825015;29;45451;-89
2021/08/05 08:15:58;;;;;;;;;12.00;10.00;;;;;20.19;59.28;100750.13;4826399;29;45390;-89
2021/08/05 08:18:24;;;;;;;;;12.33;12.00;;;;;20.19;59.55;100746.63;4823972;29;45588;-89
2021/08/05 08:20:50;;;;;;;;;12.00;11.33;;;;;20.23;59.28;100748.06;4824119;29;46390;-88
2021/08/05 08:23:16;;;;;;;;;13.33;11.00;;;;;20.27;59.03;100744.25;4833306;29;45319;-88
2021/08/05 08:25:42;;;;;;;;;11.33;10.33;;;;;20.31;58.90;100750.94;4837016;29;45462;-88
2021/08/05 08:28:08;;;;;;;;;12.50;10.50;;;;;20.30;58.89;100746.63;4824582;29;45566;-88
2021/08/05 08:30:37;;;;;;;;;11.00;7.00;;;;;20.36;58.91;100750.63;4834186;29;45462;-88
2021/08/05 08:33:03;;;;;;;;;11.67;10.67;;;;;20.40;58.51;100746.75;4845197;29;45472;-89
2021/08/05 08:35:28;;;;;;;;;9.33;9.33;;;;;20.43;58.66;100750.00;4841147;29;45557;-88
2021/08/05 08:37:54;;;;;;;;;13.33;10.67;;;;;20.48;58.59;100741.72;4834514;29;44832;-88
2021/08/05 08:40:20;;;;;;;;;9.00;8.67;;;;;20.55;57.84;100740.28;4836958;29;46915;-88
2021/08/05 08:42:45;;;;;;;;;10.00;9.00;;;;;20.61;57.95;100735.47;4831183;29;45344;-88
2021/08/05 08:45:13;;;;;;;;;11.00;11.00;;;;;20.63;57.62;100738.81;4827523;29;45290;-89
2021/08/05 08:47:40;;;;;;;;;9.00;9.00;;;;;20.61;56.99;100723.09;4827345;29;45526;-88
2021/08/05 08:50:07;;;;;;;;;11.33;9.00;;;;;20.68;57.56;100737.50;4838317;29;46110;-88
2021/08/05 08:52:35;;;;;;;;;11.33;11.33;;;;;20.69;57.15;100736.53;4828990;29;45601;-88
2021/08/05 08:55:03;;;;;;;;;10.33;8.33;;;;;20.73;57.57;100737.13;4827476;29;45346;-89
2021/08/05 08:57:34;;;;;;;;;14.33;11.00;;;;;20.77;57.37;100738.56;4827563;29;45637;-89
2021/08/05 09:00:03;;;;;;;;;15.00;12.67;;;;;20.83;57.08;100746.03;4825808;29;45817;-88
2021/08/05 09:02:30;;;;;;;;;10.00;10.00;;;;;20.86;57.00;100736.19;4839666;29;45490;-89
2021/08/05 09:04:56;;;;;;;;;9.75;9.50;;;;;20.92;56.63;100736.53;4828064;29;45464;-88
2021/08/05 09:07:23;;;;;;;;;15.00;13.67;;;;;20.98;56.67;100740.50;4843936;29;45298;-88
2021/08/05 09:09:52;;;;;;;;;10.33;9.00;;;;;21.00;56.41;100735.06;4838995;29;46662;-89
2021/08/05 09:12:18;;;;;;;;;14.67;9.33;;;;;21.03;56.28;100732.19;4842257;29;46031;-88
2021/08/05 09:14:46;;;;;;;;;11.67;11.00;;;;;21.09;56.70;100735.19;4826612;29;45523;-88
2021/08/05 09:17:26;;;;;;;;;11.00;9.33;;;;;21.13;56.45;100735.78;4827049;29;45376;-89
2021/08/05 09:19:54;;;;;;;;;11.00;11.00;;;;;21.20;56.30;100733.47;4840882;29;48475;-88
2021/08/05 09:22:36;;;;;;;;;10.67;10.00;;;;;21.19;55.97;100731.78;4826665;29;45446;-88
2021/08/05 09:25:20;;;;;;;;;13.00;12.67;;;;;21.18;56.04;100744.19;4828201;29;45503;-88
2021/08/05 09:27:46;;;;;;;;;11.33;11.33;;;;;21.18;56.26;100745.97;4827144;29;45365;-89
2021/08/05 09:30:12;;;;;;;;;10.67;8.67;;;;;21.19;56.09;100737.94;4826712;29;45568;-88
2021/08/05 09:32:38;;;;;;;;;10.67;10.67;;;;;21.16;56.27;100740.81;4840890;29;45424;-89
2021/08/05 09:35:09;;;;;;;;;11.00;9.67;;;;;21.17;55.75;100739.00;4829239;29;45317;-88
2021/08/05 09:37:36;;;;;;;;;9.67;9.67;;;;;21.15;55.84;100744.41;4825744;29;45412;-89
2021/08/05 09:40:13;;;;;;;;;12.00;10.33;;;;;21.15;55.68;100740.97;4826210;29;45254;-89
2021/08/05 09:42:38;;;;;;;;;9.33;9.33;;;;;21.17;55.63;100745.16;4839930;29;45901;-89
2021/08/05 09:45:06;;;;;;;;;11.67;11.67;;;;;21.23;55.70;100744.66;4829082;29;45473;-89
2021/08/05 09:47:42;;;;;;;;;10.67;10.67;;;;;21.23;55.21;100739.38;4825270;29;45452;-89
2021/08/05 09:50:08;;;;;;;;;13.00;10.67;;;;;21.27;55.10;100742.59;4840497;29;47401;-88
2021/08/05 09:52:36;;;;;;;;;9.00;9.00;;;;;21.28;55.49;100730.22;4824905;29;45473;-88
2021/08/05 09:55:10;;;;;;;;;11.00;11.00;;;;;21.29;54.83;100729.25;4826189;29;45421;-89
2021/08/05 09:57:38;;;;;;;;;10.33;10.33;;;;;21.35;55.71;100742.78;4826604;29;45492;-89
2021/08/05 10:00:08;;;;;;;;;9.33;9.00;;;;;21.36;54.83;100730.41;4840306;29;46390;-89
2021/08/05 10:02:50;;;;;;;;;13.00;10.00;;;;;21.39;54.86;100735.47;4840492;29;45394;-89
2021/08/05 10:05:26;;;;;;;;;9.67;9.67;;;;;21.47;54.67;100725.06;4826243;29;45395;-89
2021/08/05 10:07:53;;;;;;;;;7.33;7.00;;;;;21.61;55.12;100710.69;4841545;29;45471;-89
2021/08/05 10:10:22;;;;;;;;;8.00;8.00;;;;;21.87;54.81;100714.78;4844704;29;45627;-89
2021/08/05 10:12:54;;;;;;;;;10.33;8.33;;;;;22.10;54.46;100719.94;4844658;29;44763;-89
2021/08/05 10:15:21;;;;;;;;;10.00;10.00;;;;;22.20;53.47;100710.22;4844842;29;45334;-89
2021/08/05 10:17:52;;;;;;;;;7.67;7.67;;;;;22.31;53.15;100697.88;4841835;29;45448;-88
2021/08/05 10:20:19;;;;;;;;;9.00;7.33;;;;;22.44;53.49;100709.06;4842863;29;46927;-88
2021/08/05 10:22:46;;;;;;;;;6.33;6.33;;;;;22.55;52.83;100694.94;4843028;29;45309;-89
2021/08/05 10:25:14;;;;;;;;;7.33;7.33;;;;;22.64;51.22;100699.41;4844729;29;45296;-90
2021/08/05 10:27:40;;;;;;;;;8.33;7.67;;;;;22.61;52.58;100701.47;4840982;29;45869;-89
2021/08/05 10:30:10;;;;;;;;;6.00;5.33;;;;;22.60;52.55;100698.00;4825876;29;45426;-88
2021/08/05 10:32:36;;;;;;;;;7.33;5.00;;;;;22.62;52.15;100700.50;4839944;29;45339;-90
2021/08/05 10:35:02;;;;;;;;;5.00;5.00;;;;;22.61;52.23;100693.53;4839951;29;45432;-89
2021/08/05 10:37:28;;;;;;;;;4.33;4.33;;;;;22.52;51.58;100696.03;4825939;29;44770;-88
2021/08/05 10:39:55;;;;;;;;;4.33;3.33;;;;;22.46;51.40;100693.88;4839880;29;45506;-89
2021/08/05 10:42:21;;;;;;;;;3.33;3.00;;;;;22.40;50.86;100684.66;4844255;29;45401;-89
2021/08/05 10:44:48;;;;;;;;;5.00;5.00;;;;;22.39;51.50;100685.63;4844311;29;45550;-89
2021/08/05 10:47:19;;;;;;;;;3.33;3.33;;;;;22.36;51.09;100679.75;4844354;29;45383;-89
2021/08/05 10:49:47;;;;;;;;;5.00;5.00;;;;;22.40;51.37;100676.69;4841393;29;46816;-89
2021/08/05 10:52:50;;;;;;;;;4.00;4.00;;;;;22.58;50.97;100672.59;4838539;29;45744;-88
2021/08/05 10:55:15;;;;;;;;;3.67;2.33;;;;;22.79;50.71;100664.53;4751182;29;45618;-89
2021/08/05 10:57:41;;;;;;;;;3.00;3.00;;;;;23.01;47.16;100665.25;4750980;29;45376;-88
2021/08/05 11:00:10;;;;;;;;;4.00;2.33;;;;;23.25;49.52;100661.34;4757936;29;46825;-88
2021/08/05 11:02:49;;;;;;;;;3.67;2.67;;;;;23.54;49.05;100664.00;4768876;29;45488;-89
2021/08/05 11:05:21;;;;;;;;;3.33;2.67;;;;;23.70;48.83;100657.28;4768834;29;45491;-89
2021/08/05 11:07:47;;;;;;;;;5.33;4.00;;;;;23.74;48.80;100653.34;4768695;29;45464;-89
2021/08/05 11:10:13;;;;;;;;;2.67;2.67;;;;;23.74;48.66;100658.66;4752797;29;47520;-90
2021/08/05 11:12:42;;;;;;;;;2.67;2.67;;;;;23.69;48.37;100644.97;4753490;29;45395;-89
2021/08/05 11:15:19;;;;;;;;;5.00;3.00;;;;;23.66;48.41;100647.91;4767815;29;45425;-89
2021/08/05 11:18:06;;;;;;;;;4.67;4.67;;;;;23.55;48.11;100644.44;4753667;29;45575;-89
2021/08/05 11:20:33;;;;;;;;;3.00;3.00;;;;;23.45;48.27;100639.16;4767544;29;45830;-89